Pagina principale
METAR-TAF:

METAR-TAF

Aeroporti :

Arnhem, Paesi Bassi

latitudine: 52-04N, longitudine: 005-53E, altezza: 48 m

Osservazione

Il bollettino è stato emesso 29 minuti fa, alle 07:25 UTC
Vento 7 kt da sud-ovest, variando fra sud e ovest
Temperature 15°C
Umidità 88%
Pressione 1021 hPa
Visibilità 10 km o più

METAR: EHDL 200725Z AUTO 22007KT 170V280 9999 NCD 15/13 Q1021 BLU

Ora: 09:54 (07:54 UTC)


TAF: mancante

Osservazioni e previsioni meteorologiche di più di 4000 aeroporti (messaggi METAR e TAF).

Le stazioni disponibili sono rappresentate dai dischi gialli e rossi sulla carta.

Puntare il mouse per vedere il nome della stazione.

Clicca sopra per visualizzare le osservazioni e previsioni meteorologiche.

Per cambiare la mappa : fare clic sui pulsanti verdi con una croce nera per ingrandire, il pulsante verde con un trattino per diminuire, o sulla freccia verde per le mappe adiacenti.


METAR-TAF: